createdAt,value
2023-03-18T00:01:39.098Z,4.53
2023-03-18T00:04:07.713Z,4.97
2023-03-18T00:06:38.282Z,4.53
2023-03-18T00:09:07.121Z,4.53
2023-03-18T00:11:36.433Z,4.68
2023-03-18T00:14:06.881Z,4.38
2023-03-18T00:16:39.155Z,4.22
2023-03-18T00:19:07.511Z,4.10
2023-03-18T00:21:36.114Z,4.70
2023-03-18T00:24:05.302Z,3.80
2023-03-18T00:26:33.774Z,5.05
2023-03-18T00:29:02.483Z,4.75
2023-03-18T00:31:31.559Z,4.90
2023-03-18T00:34:01.268Z,4.97
2023-03-18T00:36:30.579Z,4.30
2023-03-18T00:38:59.726Z,4.03
2023-03-18T00:41:28.845Z,4.05
2023-03-18T00:43:59.432Z,5.07
2023-03-18T00:46:30.769Z,4.32
2023-03-18T00:49:05.365Z,4.30
2023-03-18T00:51:36.793Z,5.10
2023-03-18T00:54:08.674Z,4.85
2023-03-18T00:57:36.651Z,4.50
2023-03-18T01:05:41.544Z,5.15
2023-03-18T01:08:10.960Z,4.45
2023-03-18T01:10:39.152Z,3.45
2023-03-18T01:13:08.074Z,4.70
2023-03-18T01:15:36.263Z,4.82
2023-03-18T01:18:04.970Z,4.72
2023-03-18T01:20:33.509Z,4.97
2023-03-18T01:23:01.962Z,4.63
2023-03-18T01:25:31.576Z,4.28
2023-03-18T01:27:59.829Z,3.75
2023-03-18T01:30:29.011Z,4.72
2023-03-18T01:32:57.468Z,4.78
2023-03-18T01:35:27.179Z,4.22
2023-03-18T01:37:55.520Z,3.58
2023-03-18T01:40:23.867Z,3.97
2023-03-18T01:42:59.152Z,4.78
2023-03-18T01:45:29.347Z,4.53
2023-03-18T01:47:58.391Z,3.78
2023-03-18T01:50:29.324Z,4.00
2023-03-18T01:52:59.569Z,3.17
2023-03-18T01:55:31.629Z,4.28
2023-03-18T01:58:03.361Z,4.22
2023-03-18T02:00:31.628Z,4.00
2023-03-18T02:03:00.433Z,3.72
2023-03-18T02:05:29.950Z,3.22
2023-03-18T02:07:58.067Z,4.22
2023-03-18T02:10:27.868Z,4.07
2023-03-18T02:13:00.507Z,3.83
2023-03-18T02:15:33.165Z,4.00
2023-03-18T02:18:05.382Z,4.38
2023-03-18T02:20:43.872Z,4.13
2023-03-18T02:23:27.879Z,4.05
2023-03-18T02:26:02.810Z,3.55
2023-03-18T02:28:33.329Z,4.50
2023-03-18T02:31:04.586Z,4.03
2023-03-18T02:33:36.435Z,3.83
2023-03-18T02:36:07.211Z,3.70
2023-03-18T02:38:35.447Z,4.00
2023-03-18T02:41:03.661Z,4.03
2023-03-18T02:43:34.310Z,3.85
2023-03-18T02:46:34.611Z,4.00
2023-03-18T02:49:04.635Z,4.10
2023-03-18T02:51:32.781Z,4.05
2023-03-18T02:54:04.695Z,4.25
2023-03-18T02:56:32.928Z,4.50
2023-03-18T02:59:02.364Z,4.50
2023-03-18T03:01:30.714Z,4.25
2023-03-18T03:03:58.785Z,4.90
2023-03-18T03:06:26.857Z,4.40
2023-03-18T03:08:55.149Z,3.92
2023-03-18T03:11:23.702Z,4.60
2023-03-18T03:13:51.844Z,3.72
2023-03-18T03:16:21.606Z,4.00
2023-03-18T03:18:49.665Z,4.45
2023-03-18T03:21:18.086Z,4.05
2023-03-18T03:23:46.716Z,4.60
2023-03-18T03:26:15.258Z,3.95
2023-03-18T03:28:44.164Z,4.28
2023-03-18T03:31:12.428Z,5.03
2023-03-18T03:33:43.729Z,4.25
2023-03-18T03:36:13.040Z,4.00
2023-03-18T03:38:42.379Z,5.22
2023-03-18T03:41:11.606Z,4.20
2023-03-18T03:43:40.354Z,4.38
2023-03-18T03:46:09.561Z,4.38
2023-03-18T03:48:38.159Z,4.63
2023-03-18T03:51:08.566Z,4.72
2023-03-18T03:53:37.163Z,4.45
2023-03-18T03:56:07.557Z,3.60
2023-03-18T03:58:35.981Z,4.45
2023-03-18T04:01:05.102Z,4.80
2023-03-18T04:03:33.920Z,3.97
2023-03-18T04:06:02.009Z,4.35
2023-03-18T04:08:31.717Z,7.50
2023-03-18T04:10:59.928Z,5.70
2023-03-18T04:13:27.932Z,5.03
2023-03-18T04:15:55.955Z,4.53
2023-03-18T04:18:23.978Z,7.25
2023-03-18T04:20:52.016Z,4.32
2023-03-18T04:23:20.801Z,3.85
2023-03-18T04:25:50.536Z,4.22
2023-03-18T04:28:18.510Z,4.82
2023-03-18T04:30:46.528Z,4.28
2023-03-18T04:33:14.616Z,10.73
2023-03-18T04:35:43.628Z,5.50
2023-03-18T04:38:11.938Z,4.38
2023-03-18T04:40:40.025Z,4.68
2023-03-18T04:43:10.555Z,4.82
2023-03-18T04:45:38.713Z,4.32
2023-03-18T04:48:07.319Z,4.75
2023-03-18T04:50:35.412Z,5.10
2023-03-18T04:53:03.473Z,5.05
2023-03-18T04:55:31.848Z,5.03
2023-03-18T04:58:00.572Z,4.68
2023-03-18T05:00:29.992Z,6.22
2023-03-18T05:02:58.176Z,5.15
2023-03-18T05:05:26.368Z,6.00
2023-03-18T05:07:54.389Z,6.07
2023-03-18T05:10:22.549Z,5.22
2023-03-18T05:12:50.727Z,6.03
2023-03-18T05:15:19.487Z,6.55
2023-03-18T05:17:48.840Z,5.25
2023-03-18T05:20:16.871Z,5.85
2023-03-18T05:22:44.887Z,5.18
2023-03-18T05:25:13.002Z,5.45
2023-03-18T05:27:41.828Z,4.75
2023-03-18T05:30:12.467Z,4.90
2023-03-18T05:32:41.492Z,5.18
2023-03-18T05:35:12.097Z,4.93
2023-03-18T05:37:40.728Z,5.32
2023-03-18T05:40:11.635Z,4.70
2023-03-18T05:42:54.912Z,4.90
2023-03-18T05:45:24.374Z,5.20
2023-03-18T05:47:52.869Z,5.50
2023-03-18T05:50:30.902Z,5.13
2023-03-18T05:52:59.087Z,6.45
2023-03-18T05:55:28.408Z,4.70
2023-03-18T05:57:56.738Z,5.20
2023-03-18T06:00:25.762Z,4.82
2023-03-18T06:02:54.074Z,4.80
2023-03-18T06:05:22.929Z,5.00
2023-03-18T06:07:54.017Z,4.47
2023-03-18T06:10:22.613Z,4.80
2023-03-18T06:12:50.926Z,4.55
2023-03-18T06:15:21.355Z,5.18
2023-03-18T06:17:50.005Z,5.38
2023-03-18T06:20:18.707Z,6.00
2023-03-18T06:22:49.577Z,5.28
2023-03-18T06:25:20.999Z,4.88
2023-03-18T06:27:49.059Z,5.30
2023-03-18T06:30:17.989Z,4.80
2023-03-18T06:32:46.396Z,5.63
2023-03-18T06:35:15.524Z,4.40
2023-03-18T06:37:43.768Z,5.38
2023-03-18T06:40:13.334Z,4.22
2023-03-18T06:42:42.970Z,5.10
2023-03-18T06:45:12.011Z,5.00
2023-03-18T06:47:41.058Z,4.05
2023-03-18T06:50:09.785Z,4.75
2023-03-18T06:52:38.455Z,4.20
2023-03-18T06:55:07.590Z,4.22
2023-03-18T06:57:35.674Z,4.15
2023-03-18T07:00:06.074Z,4.82
2023-03-18T07:02:34.121Z,4.85
2023-03-18T07:05:02.120Z,3.65
2023-03-18T07:07:30.150Z,4.68
2023-03-18T07:09:58.159Z,4.00
2023-03-18T07:12:26.654Z,4.30
2023-03-18T07:14:54.673Z,3.50
2023-03-18T07:17:24.410Z,4.15
2023-03-18T07:19:52.739Z,4.32
2023-03-18T07:22:21.240Z,3.60
2023-03-18T07:24:49.416Z,3.55
2023-03-18T07:27:18.036Z,3.80
2023-03-18T07:29:46.465Z,3.72
2023-03-18T07:32:14.732Z,3.30
2023-03-18T07:34:44.099Z,4.18
2023-03-18T07:37:12.291Z,3.67
2023-03-18T07:39:40.307Z,4.40
2023-03-18T07:42:09.461Z,3.28
2023-03-18T07:44:37.832Z,3.22
2023-03-18T07:47:06.176Z,4.13
2023-03-18T07:49:34.285Z,4.05
2023-03-18T07:52:04.057Z,3.97
2023-03-18T07:54:32.036Z,3.38
2023-03-18T07:57:00.153Z,3.55
2023-03-18T07:59:28.185Z,3.45
2023-03-18T08:01:56.765Z,3.88
2023-03-18T08:04:25.107Z,3.25
2023-03-18T08:06:53.393Z,4.05
2023-03-18T08:09:23.125Z,3.05
2023-03-18T08:11:51.293Z,4.00
2023-03-18T08:14:19.319Z,2.97
2023-03-18T08:16:47.818Z,3.35
2023-03-18T08:19:15.813Z,3.00
2023-03-18T08:21:44.121Z,3.00
2023-03-18T08:24:12.670Z,2.80
2023-03-18T08:26:43.149Z,3.35
2023-03-18T08:29:11.212Z,3.22
2023-03-18T08:31:39.244Z,2.92
2023-03-18T08:34:07.347Z,2.92
2023-03-18T08:36:36.100Z,3.40
2023-03-18T08:39:05.310Z,2.85
2023-03-18T08:41:34.574Z,3.22
2023-03-18T08:44:06.610Z,3.50
2023-03-18T08:46:34.626Z,3.20
2023-03-18T08:49:02.693Z,3.10
2023-03-18T08:51:30.878Z,3.33
2023-03-18T08:53:59.178Z,2.85
2023-03-18T08:56:27.228Z,2.92
2023-03-18T08:58:55.357Z,3.17
2023-03-18T09:01:24.784Z,2.90
2023-03-18T09:03:53.005Z,3.42
2023-03-18T09:06:21.396Z,2.75
2023-03-18T09:08:49.434Z,3.22
2023-03-18T09:11:18.545Z,2.92
2023-03-18T09:13:46.585Z,3.90
2023-03-18T09:16:14.653Z,2.72
2023-03-18T09:18:45.924Z,2.83
2023-03-18T09:21:15.104Z,2.33
2023-03-18T09:23:43.181Z,2.63
2023-03-18T09:26:11.365Z,2.55
2023-03-18T09:28:39.377Z,2.55
2023-03-18T09:31:07.405Z,2.65
2023-03-18T09:33:37.020Z,2.22
2023-03-18T09:36:07.075Z,2.33
2023-03-18T09:38:35.313Z,2.25
2023-03-18T09:41:08.025Z,2.30
2023-03-18T09:43:48.230Z,2.50
2023-03-18T09:46:23.245Z,1.50
2023-03-18T09:49:12.430Z,2.10
2023-03-18T09:51:49.551Z,1.70
2023-03-18T09:54:20.215Z,1.88
2023-03-18T09:56:48.704Z,2.08
2023-03-18T09:59:21.521Z,1.88
2023-03-18T10:01:54.158Z,1.60
2023-03-18T10:04:24.824Z,2.20
2023-03-18T10:07:00.145Z,1.75
2023-03-18T10:09:29.876Z,1.88
2023-03-18T10:12:02.592Z,2.17
2023-03-18T10:14:37.298Z,1.63
2023-03-18T10:17:14.109Z,1.40
2023-03-18T10:19:44.717Z,1.42
2023-03-18T10:22:40.572Z,2.10
2023-03-18T10:25:18.531Z,1.60
2023-03-18T10:27:57.473Z,2.00
2023-03-18T10:30:36.961Z,2.08
2023-03-18T10:33:09.028Z,1.30
2023-03-18T10:35:39.939Z,1.90
2023-03-18T10:38:19.526Z,1.63
2023-03-18T10:40:49.394Z,1.63
2023-03-18T10:43:19.551Z,1.70
2023-03-18T10:45:49.891Z,2.15
2023-03-18T10:48:22.191Z,1.40
2023-03-18T10:50:54.608Z,1.58
2023-03-18T10:53:28.818Z,1.65
2023-03-18T10:56:01.387Z,1.60
2023-03-18T10:58:30.295Z,1.50
2023-03-18T11:00:59.064Z,1.63
2023-03-18T11:03:29.351Z,1.15
2023-03-18T11:05:59.214Z,1.20
2023-03-18T11:08:36.942Z,1.50
2023-03-18T11:11:22.482Z,1.73
2023-03-18T11:13:55.889Z,1.10
2023-03-18T11:16:38.245Z,1.65
2023-03-18T11:19:24.427Z,1.23
2023-03-18T11:22:02.033Z,1.25
2023-03-18T11:24:39.263Z,1.55
2023-03-18T11:27:29.797Z,1.30
2023-03-18T11:30:00.971Z,1.20
2023-03-18T11:32:31.087Z,1.42
2023-03-18T11:35:00.844Z,1.75
2023-03-18T11:37:32.759Z,1.67
2023-03-18T11:40:18.561Z,1.52
2023-03-18T11:42:48.615Z,1.50
2023-03-18T11:45:54.062Z,1.30
2023-03-18T11:48:36.504Z,1.40
2023-03-18T11:51:29.780Z,1.57
2023-03-18T11:54:10.009Z,1.90
2023-03-18T11:56:43.878Z,1.25
2023-03-18T11:59:28.930Z,1.33
2023-03-18T12:02:06.123Z,1.08
2023-03-18T12:04:41.454Z,1.23
2023-03-18T12:07:23.676Z,1.58
2023-03-18T12:09:56.889Z,1.40
2023-03-18T12:12:47.578Z,1.70
2023-03-18T12:15:23.390Z,1.60
2023-03-18T12:17:59.600Z,1.20
2023-03-18T12:20:45.891Z,1.40
2023-03-18T12:23:26.976Z,1.15
2023-03-18T12:26:00.222Z,1.38
2023-03-18T12:28:38.532Z,1.25
2023-03-18T12:31:28.554Z,1.88
2023-03-18T12:33:58.346Z,1.40
2023-03-18T12:36:36.755Z,1.58
2023-03-18T12:39:22.816Z,1.70
2023-03-18T12:42:01.240Z,1.77
2023-03-18T12:44:43.836Z,1.63
2023-03-18T12:47:15.310Z,1.42
2023-03-18T12:49:46.556Z,1.80
2023-03-18T12:52:20.810Z,1.65
2023-03-18T12:54:52.063Z,1.10
2023-03-18T12:57:25.478Z,1.67
2023-03-18T12:59:59.101Z,1.40
2023-03-18T13:02:41.322Z,1.42
2023-03-18T13:05:26.664Z,1.70
2023-03-18T13:08:31.428Z,1.23
2023-03-18T13:11:05.951Z,1.30
2023-03-18T13:13:36.809Z,1.40
2023-03-18T13:16:06.777Z,1.23
2023-03-18T13:18:38.373Z,1.20
2023-03-18T13:21:07.402Z,1.70
2023-03-18T13:23:59.031Z,1.42
2023-03-18T13:26:34.899Z,1.30
2023-03-18T13:29:14.192Z,1.25
2023-03-18T13:31:53.380Z,1.58
2023-03-18T13:35:00.090Z,0.98
2023-03-18T13:37:49.061Z,1.02
2023-03-18T13:40:27.431Z,1.48
2023-03-18T13:42:58.096Z,1.58
2023-03-18T13:45:30.052Z,1.30
2023-03-18T13:48:01.558Z,1.65
2023-03-18T13:50:35.499Z,1.50
2023-03-18T13:53:04.186Z,1.50
2023-03-18T13:55:34.998Z,1.30
2023-03-18T13:58:19.947Z,1.25
2023-03-18T14:01:33.461Z,1.40
2023-03-18T14:04:30.256Z,1.58
2023-03-18T14:07:12.568Z,1.67
2023-03-18T14:10:18.734Z,1.27
2023-03-18T14:12:48.710Z,1.05
2023-03-18T14:15:39.223Z,1.30
2023-03-18T14:18:27.674Z,1.13
2023-03-18T14:21:02.640Z,1.17
2023-03-18T14:23:39.400Z,1.00
2023-03-18T14:26:09.676Z,1.20
2023-03-18T14:28:45.595Z,1.05
2023-03-18T14:31:22.753Z,0.90
2023-03-18T14:34:00.035Z,0.93
2023-03-18T14:37:04.439Z,0.90
2023-03-18T14:39:34.995Z,1.20
2023-03-18T14:42:04.565Z,1.70
2023-03-18T14:44:37.252Z,1.20
2023-03-18T14:47:07.738Z,1.75
2023-03-18T14:49:38.373Z,1.20
2023-03-18T14:52:24.434Z,0.93
2023-03-18T14:54:55.043Z,1.95
2023-03-18T14:57:23.796Z,1.42
2023-03-18T14:59:51.857Z,1.27
2023-03-18T15:02:25.542Z,1.65
2023-03-18T15:04:55.472Z,1.00
2023-03-18T15:07:34.234Z,1.60
2023-03-18T15:10:10.898Z,1.05
2023-03-18T15:12:39.616Z,1.67
2023-03-18T15:15:12.070Z,0.90
2023-03-18T15:17:42.326Z,1.25
2023-03-18T15:20:14.380Z,0.93
2023-03-18T15:22:44.607Z,1.10
2023-03-18T15:25:18.994Z,1.35
2023-03-18T15:27:47.109Z,1.27
2023-03-18T15:30:26.561Z,1.00
2023-03-18T15:33:03.721Z,1.52
2023-03-18T15:35:32.892Z,1.77
2023-03-18T15:38:16.754Z,1.55
2023-03-18T15:40:50.082Z,1.75
2023-03-18T15:43:30.270Z,1.20
2023-03-18T15:46:00.354Z,1.60
2023-03-18T15:48:32.039Z,1.50
2023-03-18T15:51:01.927Z,1.50
2023-03-18T15:53:36.622Z,1.33
2023-03-18T15:56:14.730Z,1.60
2023-03-18T15:58:44.804Z,1.25
2023-03-18T16:01:17.010Z,1.67
2023-03-18T16:03:46.569Z,1.30
2023-03-18T16:06:16.298Z,1.50
2023-03-18T16:08:46.462Z,1.88
2023-03-18T16:11:15.568Z,1.25
2023-03-18T16:13:44.675Z,1.35
2023-03-18T16:16:18.607Z,1.60
2023-03-18T16:18:46.862Z,1.58
2023-03-18T16:21:15.978Z,1.52
2023-03-18T16:23:46.457Z,1.58
2023-03-18T16:26:17.550Z,1.60
2023-03-18T16:28:48.307Z,1.95
2023-03-18T16:31:17.769Z,1.90
2023-03-18T16:33:47.331Z,2.28
2023-03-18T16:36:26.835Z,1.70
2023-03-18T16:38:56.232Z,1.48
2023-03-18T16:41:24.394Z,2.17
2023-03-18T16:43:52.723Z,2.10
2023-03-18T16:46:20.850Z,1.77
2023-03-18T16:48:50.440Z,1.90
2023-03-18T16:51:19.040Z,1.30
2023-03-18T16:53:47.084Z,1.33
2023-03-18T16:56:18.973Z,1.65
2023-03-18T16:58:47.101Z,5.18
2023-03-18T17:01:16.809Z,1.60
2023-03-18T17:03:45.655Z,1.23
2023-03-18T17:06:14.937Z,1.48
2023-03-18T17:08:43.028Z,1.95
2023-03-18T17:11:13.076Z,2.33
2023-03-18T17:13:43.580Z,4.57
2023-03-18T17:16:17.518Z,5.75
2023-03-18T17:18:46.533Z,2.80
2023-03-18T17:21:15.455Z,2.92
2023-03-18T17:23:43.662Z,7.32
2023-03-18T17:26:14.517Z,2.47
2023-03-18T17:28:45.539Z,3.90
2023-03-18T17:31:14.532Z,4.72
2023-03-18T17:33:42.848Z,10.85
2023-03-18T17:36:10.983Z,2.70
2023-03-18T17:38:39.044Z,4.43
2023-03-18T17:41:14.798Z,3.97
2023-03-18T17:43:44.205Z,3.80
2023-03-18T17:46:12.316Z,2.92
2023-03-18T17:48:41.027Z,2.33
2023-03-18T17:51:13.449Z,2.28
2023-03-18T17:53:43.311Z,3.30
2023-03-18T17:56:13.994Z,2.70
2023-03-18T17:58:45.652Z,2.38
2023-03-18T18:01:15.456Z,2.10
2023-03-18T18:03:43.826Z,2.83
2023-03-18T18:06:17.315Z,5.05
2023-03-18T18:08:45.330Z,5.13
2023-03-18T18:11:18.820Z,4.18
2023-03-18T18:13:48.617Z,2.60
2023-03-18T18:16:16.819Z,6.55
2023-03-18T18:18:44.842Z,2.90
2023-03-18T18:21:15.614Z,2.40
2023-03-18T18:23:44.903Z,2.20
2023-03-18T18:26:15.630Z,2.88
2023-03-18T18:28:45.315Z,3.80
2023-03-18T18:31:15.485Z,10.38
2023-03-18T18:33:44.965Z,9.70
2023-03-18T18:36:14.063Z,4.93
2023-03-18T18:38:42.189Z,6.43
2023-03-18T18:41:10.764Z,3.60
2023-03-18T18:43:38.784Z,3.65
2023-03-18T18:46:11.816Z,2.60
2023-03-18T18:51:16.403Z,2.95
2023-03-18T18:53:44.496Z,3.00
2023-03-18T18:56:15.700Z,3.45
2023-03-18T18:58:43.734Z,2.97
2023-03-18T19:01:13.085Z,3.97
2023-03-18T19:03:42.846Z,6.80
2023-03-18T19:06:21.977Z,7.60
2023-03-18T19:08:50.003Z,5.15
2023-03-18T19:11:18.213Z,3.42
2023-03-18T19:13:46.295Z,3.50
2023-03-18T19:16:30.383Z,3.10
2023-03-18T19:19:00.184Z,3.95
2023-03-18T19:21:28.653Z,3.58
2023-03-18T19:23:58.215Z,2.85
2023-03-18T19:26:27.088Z,6.30
2023-03-18T19:28:59.259Z,4.10
2023-03-18T19:31:30.529Z,4.68
2023-03-18T19:34:00.783Z,4.15
2023-03-18T19:36:30.531Z,3.95
2023-03-18T19:39:00.359Z,3.83
2023-03-18T19:41:29.427Z,3.58
2023-03-18T19:44:01.827Z,3.97
2023-03-18T19:46:36.216Z,3.75
2023-03-18T19:49:12.121Z,4.43
2023-03-18T19:51:40.119Z,4.38
2023-03-18T19:54:20.328Z,3.40
2023-03-18T19:56:49.142Z,3.72
2023-03-18T19:59:21.636Z,3.45
2023-03-18T20:01:49.708Z,4.03
2023-03-18T20:04:20.702Z,3.95
2023-03-18T20:06:50.075Z,4.50
2023-03-18T20:09:18.747Z,4.72
2023-03-18T20:11:47.266Z,4.07
2023-03-18T20:14:27.303Z,3.70
2023-03-18T20:16:55.627Z,4.47
2023-03-18T20:19:25.007Z,4.70
2023-03-18T20:21:53.785Z,4.15
2023-03-18T20:24:29.431Z,4.22
2023-03-18T20:26:57.630Z,4.20
2023-03-18T20:29:25.823Z,5.57
2023-03-18T20:31:54.375Z,5.15
2023-03-18T20:34:24.023Z,5.15
2023-03-18T20:36:52.060Z,4.43
2023-03-18T20:39:21.792Z,3.55
2023-03-18T20:41:50.520Z,4.00
2023-03-18T20:44:18.586Z,4.43
2023-03-18T20:46:46.680Z,3.78
2023-03-18T20:49:14.919Z,4.18
2023-03-18T20:51:44.344Z,3.22
2023-03-18T20:54:17.652Z,3.42
2023-03-18T20:56:46.144Z,3.47
2023-03-18T20:59:14.806Z,3.80
2023-03-18T21:01:43.455Z,3.83
2023-03-18T21:04:13.446Z,4.40
2023-03-18T21:06:42.037Z,4.28
2023-03-18T21:09:13.245Z,3.35
2023-03-18T21:11:41.368Z,3.75
2023-03-18T21:14:15.217Z,3.40
2023-03-18T21:16:43.290Z,3.40
2023-03-18T21:19:12.623Z,3.42
2023-03-18T21:21:41.163Z,3.22
2023-03-18T21:24:24.770Z,3.10
2023-03-18T21:27:04.151Z,4.00
2023-03-18T21:29:33.369Z,4.57
2023-03-18T21:32:02.599Z,3.17
2023-03-18T21:34:30.721Z,3.90
2023-03-18T21:36:58.754Z,4.00
2023-03-18T21:39:28.250Z,4.55
2023-03-18T21:41:56.279Z,3.72
2023-03-18T21:44:24.316Z,4.28
2023-03-18T21:46:52.511Z,3.95
2023-03-18T21:49:20.990Z,4.70
2023-03-18T21:51:49.021Z,6.00
2023-03-18T21:54:19.354Z,4.40
2023-03-18T21:56:48.739Z,4.57
2023-03-18T21:59:16.746Z,4.20
2023-03-18T22:01:44.855Z,4.45
2023-03-18T22:04:12.980Z,4.20
2023-03-18T22:06:43.653Z,5.03
2023-03-18T22:09:11.739Z,4.38
2023-03-18T22:11:39.918Z,4.95
2023-03-18T22:14:12.217Z,5.30
2023-03-18T22:16:40.271Z,5.35
2023-03-18T22:19:08.298Z,4.38
2023-03-18T22:21:36.342Z,5.10
2023-03-18T22:24:04.538Z,5.05
2023-03-18T22:26:32.553Z,5.40
2023-03-18T22:29:00.580Z,4.45
2023-03-18T22:31:30.376Z,4.65
2023-03-18T22:33:58.547Z,5.68
2023-03-18T22:36:28.823Z,4.88
2023-03-18T22:38:56.920Z,4.68
2023-03-18T22:41:29.246Z,5.20
2023-03-18T22:43:57.956Z,5.82
2023-03-18T22:46:28.173Z,5.28
2023-03-18T22:48:58.453Z,4.65
2023-03-18T22:51:29.704Z,4.95
2023-03-18T22:53:58.024Z,5.38
2023-03-18T22:56:26.210Z,5.03
2023-03-18T22:58:54.270Z,4.95
2023-03-18T23:01:32.661Z,5.57
2023-03-18T23:04:02.171Z,5.68
2023-03-18T23:06:30.205Z,5.00
2023-03-18T23:08:58.516Z,4.88
2023-03-18T23:11:27.276Z,5.43
2023-03-18T23:13:55.664Z,4.70
2023-03-18T23:16:25.975Z,5.25
2023-03-18T23:18:54.537Z,6.07
2023-03-18T23:21:25.378Z,5.43
2023-03-18T23:23:53.657Z,5.43
2023-03-18T23:26:21.834Z,5.60
2023-03-18T23:28:49.945Z,5.57
2023-03-18T23:31:18.209Z,5.45
2023-03-18T23:33:47.314Z,5.20
2023-03-18T23:36:15.794Z,5.40
2023-03-18T23:38:45.316Z,5.88
2023-03-18T23:41:13.306Z,4.80
2023-03-18T23:43:41.337Z,5.35
2023-03-18T23:46:09.551Z,5.53
2023-03-18T23:48:37.580Z,5.50
2023-03-18T23:51:05.785Z,5.00
2023-03-18T23:53:33.846Z,4.97
2023-03-18T23:56:03.232Z,5.38
2023-03-18T23:58:31.285Z,5.03
